sensor_id;sensor_type;location;lat;lon;timestamp;P1;durP1;ratioP1;P2;durP2;ratioP2
39434;SDS011;66825;51.880;-0.518;2023-04-24T00:01:53;0.90;;;0.90;;
39434;SDS011;66825;51.880;-0.518;2023-04-24T00:04:20;1.20;;;1.10;;
39434;SDS011;66825;51.880;-0.518;2023-04-24T00:06:46;1.35;;;0.95;;
39434;SDS011;66825;51.880;-0.518;2023-04-24T00:09:14;1.20;;;1.10;;
39434;SDS011;66825;51.880;-0.518;2023-04-24T00:11:40;1.00;;;1.00;;
39434;SDS011;66825;51.880;-0.518;2023-04-24T00:14:06;1.10;;;1.00;;
39434;SDS011;66825;51.880;-0.518;2023-04-24T00:16:31;1.10;;;1.00;;
39434;SDS011;66825;51.880;-0.518;2023-04-24T00:18:57;1.02;;;0.93;;
39434;SDS011;66825;51.880;-0.518;2023-04-24T00:21:23;1.17;;;1.08;;
39434;SDS011;66825;51.880;-0.518;2023-04-24T00:23:50;1.17;;;1.00;;
39434;SDS011;66825;51.880;-0.518;2023-04-24T00:26:16;1.10;;;1.00;;
39434;SDS011;66825;51.880;-0.518;2023-04-24T00:28:41;1.20;;;1.10;;
39434;SDS011;66825;51.880;-0.518;2023-04-24T00:31:07;1.10;;;1.00;;
39434;SDS011;66825;51.880;-0.518;2023-04-24T00:33:32;1.30;;;1.20;;
39434;SDS011;66825;51.880;-0.518;2023-04-24T00:35:58;1.23;;;1.10;;
39434;SDS011;66825;51.880;-0.518;2023-04-24T00:38:23;1.10;;;1.00;;
39434;SDS011;66825;51.880;-0.518;2023-04-24T00:40:49;1.10;;;1.00;;
39434;SDS011;66825;51.880;-0.518;2023-04-24T00:43:15;1.10;;;1.00;;
39434;SDS011;66825;51.880;-0.518;2023-04-24T00:45:41;1.20;;;1.10;;
39434;SDS011;66825;51.880;-0.518;2023-04-24T00:48:07;1.20;;;1.10;;
39434;SDS011;66825;51.880;-0.518;2023-04-24T00:50:33;1.10;;;1.00;;
39434;SDS011;66825;51.880;-0.518;2023-04-24T00:52:58;1.35;;;1.10;;
39434;SDS011;66825;51.880;-0.518;2023-04-24T00:55:24;1.35;;;1.20;;
39434;SDS011;66825;51.880;-0.518;2023-04-24T00:57:50;1.23;;;1.13;;
39434;SDS011;66825;51.880;-0.518;2023-04-24T01:00:16;1.30;;;1.20;;
39434;SDS011;66825;51.880;-0.518;2023-04-24T01:02:43;1.20;;;1.10;;
39434;SDS011;66825;51.880;-0.518;2023-04-24T01:05:10;1.20;;;1.10;;
39434;SDS011;66825;51.880;-0.518;2023-04-24T01:07:38;1.30;;;1.20;;
39434;SDS011;66825;51.880;-0.518;2023-04-24T01:10:05;0.88;;;0.88;;
39434;SDS011;66825;51.880;-0.518;2023-04-24T01:12:32;1.13;;;1.00;;
39434;SDS011;66825;51.880;-0.518;2023-04-24T01:14:57;1.30;;;1.20;;
39434;SDS011;66825;51.880;-0.518;2023-04-24T01:17:23;1.00;;;0.90;;
39434;SDS011;66825;51.880;-0.518;2023-04-24T01:19:48;1.33;;;1.00;;
39434;SDS011;66825;51.880;-0.518;2023-04-24T01:22:14;1.17;;;1.08;;
39434;SDS011;66825;51.880;-0.518;2023-04-24T01:24:41;1.20;;;1.10;;
39434;SDS011;66825;51.880;-0.518;2023-04-24T01:27:08;1.10;;;1.00;;
39434;SDS011;66825;51.880;-0.518;2023-04-24T01:29:35;1.10;;;1.00;;
39434;SDS011;66825;51.880;-0.518;2023-04-24T01:32:01;1.10;;;1.00;;
39434;SDS011;66825;51.880;-0.518;2023-04-24T01:34:28;1.08;;;0.98;;
39434;SDS011;66825;51.880;-0.518;2023-04-24T01:36:54;1.17;;;1.05;;
39434;SDS011;66825;51.880;-0.518;2023-04-24T01:39:21;1.40;;;1.20;;
39434;SDS011;66825;51.880;-0.518;2023-04-24T01:41:48;0.93;;;0.93;;
39434;SDS011;66825;51.880;-0.518;2023-04-24T01:44:15;1.13;;;1.00;;
39434;SDS011;66825;51.880;-0.518;2023-04-24T01:46:41;1.10;;;1.00;;
39434;SDS011;66825;51.880;-0.518;2023-04-24T01:49:06;1.10;;;1.00;;
39434;SDS011;66825;51.880;-0.518;2023-04-24T01:51:32;1.10;;;1.00;;
39434;SDS011;66825;51.880;-0.518;2023-04-24T01:53:57;1.05;;;0.95;;
39434;SDS011;66825;51.880;-0.518;2023-04-24T01:56:23;1.05;;;0.85;;
39434;SDS011;66825;51.880;-0.518;2023-04-24T01:58:50;1.20;;;1.05;;
39434;SDS011;66825;51.880;-0.518;2023-04-24T02:01:19;1.15;;;0.90;;
39434;SDS011;66825;51.880;-0.518;2023-04-24T02:03:45;1.45;;;0.95;;
39434;SDS011;66825;51.880;-0.518;2023-04-24T02:06:10;1.10;;;1.00;;
39434;SDS011;66825;51.880;-0.518;2023-04-24T02:08:36;1.20;;;1.10;;
39434;SDS011;66825;51.880;-0.518;2023-04-24T02:11:01;1.00;;;0.90;;
39434;SDS011;66825;51.880;-0.518;2023-04-24T02:13:27;1.10;;;1.00;;
39434;SDS011;66825;51.880;-0.518;2023-04-24T02:15:53;1.10;;;1.00;;
39434;SDS011;66825;51.880;-0.518;2023-04-24T02:18:18;1.23;;;1.13;;
39434;SDS011;66825;51.880;-0.518;2023-04-24T02:20:44;1.10;;;1.00;;
39434;SDS011;66825;51.880;-0.518;2023-04-24T02:23:09;1.20;;;1.10;;
39434;SDS011;66825;51.880;-0.518;2023-04-24T02:25:35;1.10;;;1.00;;
39434;SDS011;66825;51.880;-0.518;2023-04-24T02:28:00;1.10;;;1.00;;
39434;SDS011;66825;51.880;-0.518;2023-04-24T02:30:25;1.35;;;1.20;;
39434;SDS011;66825;51.880;-0.518;2023-04-24T02:32:51;0.82;;;0.82;;
39434;SDS011;66825;51.880;-0.518;2023-04-24T02:35:16;1.10;;;1.00;;
39434;SDS011;66825;51.880;-0.518;2023-04-24T02:37:42;1.10;;;1.00;;
39434;SDS011;66825;51.880;-0.518;2023-04-24T02:40:08;1.00;;;0.90;;
39434;SDS011;66825;51.880;-0.518;2023-04-24T02:42:34;1.10;;;1.00;;
39434;SDS011;66825;51.880;-0.518;2023-04-24T02:44:59;1.13;;;1.02;;
39434;SDS011;66825;51.880;-0.518;2023-04-24T02:47:25;1.20;;;1.10;;
39434;SDS011;66825;51.880;-0.518;2023-04-24T02:49:50;1.00;;;0.90;;
39434;SDS011;66825;51.880;-0.518;2023-04-24T02:52:16;1.10;;;1.00;;
39434;SDS011;66825;51.880;-0.518;2023-04-24T02:54:42;1.23;;;1.00;;
39434;SDS011;66825;51.880;-0.518;2023-04-24T02:57:08;1.40;;;1.10;;
39434;SDS011;66825;51.880;-0.518;2023-04-24T02:59:33;1.08;;;0.95;;
39434;SDS011;66825;51.880;-0.518;2023-04-24T03:01:59;1.30;;;1.10;;
39434;SDS011;66825;51.880;-0.518;2023-04-24T03:04:24;1.33;;;1.10;;
39434;SDS011;66825;51.880;-0.518;2023-04-24T03:06:50;1.30;;;1.10;;
39434;SDS011;66825;51.880;-0.518;2023-04-24T03:09:18;1.17;;;0.98;;
39434;SDS011;66825;51.880;-0.518;2023-04-24T03:11:43;1.25;;;1.00;;
39434;SDS011;66825;51.880;-0.518;2023-04-24T03:14:09;1.10;;;1.00;;
39434;SDS011;66825;51.880;-0.518;2023-04-24T03:16:34;0.95;;;0.90;;
39434;SDS011;66825;51.880;-0.518;2023-04-24T03:19:00;0.98;;;0.88;;
39434;SDS011;66825;51.880;-0.518;2023-04-24T03:21:25;1.42;;;1.17;;
39434;SDS011;66825;51.880;-0.518;2023-04-24T03:23:51;1.10;;;1.00;;
39434;SDS011;66825;51.880;-0.518;2023-04-24T03:26:17;1.00;;;0.90;;
39434;SDS011;66825;51.880;-0.518;2023-04-24T03:28:42;1.20;;;1.00;;
39434;SDS011;66825;51.880;-0.518;2023-04-24T03:31:08;1.17;;;1.02;;
39434;SDS011;66825;51.880;-0.518;2023-04-24T03:33:33;0.82;;;0.82;;
39434;SDS011;66825;51.880;-0.518;2023-04-24T03:35:59;1.52;;;1.05;;
39434;SDS011;66825;51.880;-0.518;2023-04-24T03:38:24;1.25;;;1.15;;
39434;SDS011;66825;51.880;-0.518;2023-04-24T03:40:50;1.25;;;0.85;;
39434;SDS011;66825;51.880;-0.518;2023-04-24T03:43:15;1.20;;;0.98;;
39434;SDS011;66825;51.880;-0.518;2023-04-24T03:45:40;1.10;;;1.00;;
39434;SDS011;66825;51.880;-0.518;2023-04-24T03:48:06;1.40;;;1.10;;
39434;SDS011;66825;51.880;-0.518;2023-04-24T03:50:32;1.35;;;1.13;;
39434;SDS011;66825;51.880;-0.518;2023-04-24T03:52:58;1.15;;;1.00;;
39434;SDS011;66825;51.880;-0.518;2023-04-24T03:55:23;1.27;;;0.95;;
39434;SDS011;66825;51.880;-0.518;2023-04-24T03:57:49;1.13;;;0.95;;
39434;SDS011;66825;51.880;-0.518;2023-04-24T04:00:14;1.10;;;1.00;;
39434;SDS011;66825;51.880;-0.518;2023-04-24T04:02:40;1.38;;;1.00;;
39434;SDS011;66825;51.880;-0.518;2023-04-24T04:05:06;0.95;;;0.88;;
39434;SDS011;66825;51.880;-0.518;2023-04-24T04:07:33;1.30;;;1.10;;
39434;SDS011;66825;51.880;-0.518;2023-04-24T04:09:58;1.27;;;1.00;;
39434;SDS011;66825;51.880;-0.518;2023-04-24T04:12:24;1.25;;;1.00;;
39434;SDS011;66825;51.880;-0.518;2023-04-24T04:14:49;1.23;;;1.00;;
39434;SDS011;66825;51.880;-0.518;2023-04-24T04:17:15;1.92;;;1.15;;
39434;SDS011;66825;51.880;-0.518;2023-04-24T04:19:40;1.30;;;1.10;;
39434;SDS011;66825;51.880;-0.518;2023-04-24T04:22:06;1.30;;;1.00;;
39434;SDS011;66825;51.880;-0.518;2023-04-24T04:24:33;1.67;;;1.10;;
39434;SDS011;66825;51.880;-0.518;2023-04-24T04:26:58;1.20;;;1.00;;
39434;SDS011;66825;51.880;-0.518;2023-04-24T04:29:25;1.67;;;1.30;;
39434;SDS011;66825;51.880;-0.518;2023-04-24T04:31:51;1.55;;;1.13;;
39434;SDS011;66825;51.880;-0.518;2023-04-24T04:34:16;1.20;;;0.90;;
39434;SDS011;66825;51.880;-0.518;2023-04-24T04:36:42;1.50;;;1.10;;
39434;SDS011;66825;51.880;-0.518;2023-04-24T04:39:08;1.30;;;1.00;;
39434;SDS011;66825;51.880;-0.518;2023-04-24T04:41:34;1.30;;;1.20;;
39434;SDS011;66825;51.880;-0.518;2023-04-24T04:44:05;1.23;;;1.13;;
39434;SDS011;66825;51.880;-0.518;2023-04-24T04:46:31;1.20;;;1.00;;
39434;SDS011;66825;51.880;-0.518;2023-04-24T04:49:02;1.10;;;1.00;;
39434;SDS011;66825;51.880;-0.518;2023-04-24T04:51:28;1.17;;;1.00;;
39434;SDS011;66825;51.880;-0.518;2023-04-24T04:53:54;1.00;;;0.80;;
39434;SDS011;66825;51.880;-0.518;2023-04-24T04:56:19;1.45;;;0.88;;
39434;SDS011;66825;51.880;-0.518;2023-04-24T04:58:45;1.98;;;1.15;;
39434;SDS011;66825;51.880;-0.518;2023-04-24T05:01:11;1.40;;;1.10;;
39434;SDS011;66825;51.880;-0.518;2023-04-24T05:03:36;1.17;;;0.90;;
39434;SDS011;66825;51.880;-0.518;2023-04-24T05:06:02;1.25;;;1.02;;
39434;SDS011;66825;51.880;-0.518;2023-04-24T05:08:27;1.15;;;0.98;;
39434;SDS011;66825;51.880;-0.518;2023-04-24T05:10:53;1.83;;;1.00;;
39434;SDS011;66825;51.880;-0.518;2023-04-24T05:13:19;1.52;;;1.20;;
39434;SDS011;66825;51.880;-0.518;2023-04-24T05:15:45;1.45;;;1.00;;
39434;SDS011;66825;51.880;-0.518;2023-04-24T05:18:10;1.48;;;1.23;;
39434;SDS011;66825;51.880;-0.518;2023-04-24T05:20:36;1.20;;;1.00;;
39434;SDS011;66825;51.880;-0.518;2023-04-24T05:23:01;1.00;;;0.90;;
39434;SDS011;66825;51.880;-0.518;2023-04-24T05:25:27;1.13;;;0.85;;
39434;SDS011;66825;51.880;-0.518;2023-04-24T05:27:52;1.50;;;1.00;;
39434;SDS011;66825;51.880;-0.518;2023-04-24T05:30:18;1.63;;;0.90;;
39434;SDS011;66825;51.880;-0.518;2023-04-24T05:32:44;1.27;;;0.85;;
39434;SDS011;66825;51.880;-0.518;2023-04-24T05:35:10;1.17;;;1.00;;
39434;SDS011;66825;51.880;-0.518;2023-04-24T05:37:35;1.40;;;1.00;;
39434;SDS011;66825;51.880;-0.518;2023-04-24T05:40:01;1.20;;;0.90;;
39434;SDS011;66825;51.880;-0.518;2023-04-24T05:42:29;1.27;;;0.98;;
39434;SDS011;66825;51.880;-0.518;2023-04-24T05:44:54;1.10;;;0.95;;
39434;SDS011;66825;51.880;-0.518;2023-04-24T05:47:20;1.50;;;1.10;;
39434;SDS011;66825;51.880;-0.518;2023-04-24T05:49:47;1.35;;;1.08;;
39434;SDS011;66825;51.880;-0.518;2023-04-24T05:52:12;1.20;;;0.95;;
39434;SDS011;66825;51.880;-0.518;2023-04-24T05:54:38;1.83;;;1.05;;
39434;SDS011;66825;51.880;-0.518;2023-04-24T05:57:04;0.98;;;0.82;;
39434;SDS011;66825;51.880;-0.518;2023-04-24T05:59:33;1.38;;;1.00;;
39434;SDS011;66825;51.880;-0.518;2023-04-24T06:01:59;1.20;;;0.90;;
39434;SDS011;66825;51.880;-0.518;2023-04-24T06:04:25;1.30;;;1.00;;
39434;SDS011;66825;51.880;-0.518;2023-04-24T06:06:51;0.98;;;0.85;;
39434;SDS011;66825;51.880;-0.518;2023-04-24T06:09:21;1.20;;;1.10;;
39434;SDS011;66825;51.880;-0.518;2023-04-24T06:11:47;1.67;;;1.08;;
39434;SDS011;66825;51.880;-0.518;2023-04-24T06:14:12;1.50;;;1.20;;
39434;SDS011;66825;51.880;-0.518;2023-04-24T06:16:39;1.42;;;0.90;;
39434;SDS011;66825;51.880;-0.518;2023-04-24T06:19:07;1.35;;;1.05;;
39434;SDS011;66825;51.880;-0.518;2023-04-24T06:21:32;1.10;;;0.90;;
39434;SDS011;66825;51.880;-0.518;2023-04-24T06:23:57;1.20;;;0.90;;
39434;SDS011;66825;51.880;-0.518;2023-04-24T06:26:23;1.23;;;1.00;;
39434;SDS011;66825;51.880;-0.518;2023-04-24T06:28:50;1.27;;;0.93;;
39434;SDS011;66825;51.880;-0.518;2023-04-24T06:31:16;1.00;;;0.70;;
39434;SDS011;66825;51.880;-0.518;2023-04-24T06:33:42;0.98;;;0.82;;
39434;SDS011;66825;51.880;-0.518;2023-04-24T06:36:08;1.45;;;1.00;;
39434;SDS011;66825;51.880;-0.518;2023-04-24T06:38:33;1.70;;;0.90;;
39434;SDS011;66825;51.880;-0.518;2023-04-24T06:40:59;1.63;;;1.02;;
39434;SDS011;66825;51.880;-0.518;2023-04-24T06:43:25;1.63;;;1.15;;
39434;SDS011;66825;51.880;-0.518;2023-04-24T06:45:50;0.95;;;0.75;;
39434;SDS011;66825;51.880;-0.518;2023-04-24T06:48:16;1.42;;;0.95;;
39434;SDS011;66825;51.880;-0.518;2023-04-24T06:50:41;1.10;;;0.90;;
39434;SDS011;66825;51.880;-0.518;2023-04-24T06:53:07;1.02;;;0.85;;
39434;SDS011;66825;51.880;-0.518;2023-04-24T06:55:33;1.30;;;1.00;;
39434;SDS011;66825;51.880;-0.518;2023-04-24T06:58:00;1.58;;;1.10;;
39434;SDS011;66825;51.880;-0.518;2023-04-24T07:00:26;1.50;;;0.90;;
39434;SDS011;66825;51.880;-0.518;2023-04-24T07:02:51;1.85;;;1.15;;
39434;SDS011;66825;51.880;-0.518;2023-04-24T07:05:16;1.33;;;0.90;;
39434;SDS011;66825;51.880;-0.518;2023-04-24T07:07:45;1.10;;;1.00;;
39434;SDS011;66825;51.880;-0.518;2023-04-24T07:10:12;1.73;;;1.10;;
39434;SDS011;66825;51.880;-0.518;2023-04-24T07:12:38;1.33;;;0.90;;
39434;SDS011;66825;51.880;-0.518;2023-04-24T07:15:04;1.23;;;0.90;;
39434;SDS011;66825;51.880;-0.518;2023-04-24T07:17:30;1.65;;;1.10;;
39434;SDS011;66825;51.880;-0.518;2023-04-24T07:19:56;1.52;;;0.90;;
39434;SDS011;66825;51.880;-0.518;2023-04-24T07:22:21;1.70;;;1.02;;
39434;SDS011;66825;51.880;-0.518;2023-04-24T07:24:47;1.35;;;1.00;;
39434;SDS011;66825;51.880;-0.518;2023-04-24T07:27:13;1.73;;;1.00;;
39434;SDS011;66825;51.880;-0.518;2023-04-24T07:29:40;2.83;;;1.05;;
39434;SDS011;66825;51.880;-0.518;2023-04-24T07:32:05;1.42;;;0.88;;
39434;SDS011;66825;51.880;-0.518;2023-04-24T07:34:31;1.58;;;1.00;;
39434;SDS011;66825;51.880;-0.518;2023-04-24T07:36:56;2.92;;;1.02;;
39434;SDS011;66825;51.880;-0.518;2023-04-24T07:39:22;3.67;;;1.10;;
39434;SDS011;66825;51.880;-0.518;2023-04-24T07:41:48;3.70;;;1.10;;
39434;SDS011;66825;51.880;-0.518;2023-04-24T07:44:13;2.30;;;1.00;;
39434;SDS011;66825;51.880;-0.518;2023-04-24T07:46:39;1.95;;;1.10;;
39434;SDS011;66825;51.880;-0.518;2023-04-24T07:49:05;4.07;;;1.10;;
39434;SDS011;66825;51.880;-0.518;2023-04-24T07:51:31;2.97;;;0.95;;
39434;SDS011;66825;51.880;-0.518;2023-04-24T07:53:57;3.00;;;1.10;;
39434;SDS011;66825;51.880;-0.518;2023-04-24T07:56:23;2.58;;;1.10;;
39434;SDS011;66825;51.880;-0.518;2023-04-24T07:58:48;4.82;;;1.23;;
39434;SDS011;66825;51.880;-0.518;2023-04-24T08:01:13;5.15;;;1.20;;
39434;SDS011;66825;51.880;-0.518;2023-04-24T08:03:39;3.47;;;1.20;;
39434;SDS011;66825;51.880;-0.518;2023-04-24T08:06:04;3.10;;;1.05;;
39434;SDS011;66825;51.880;-0.518;2023-04-24T08:08:30;2.03;;;0.80;;
39434;SDS011;66825;51.880;-0.518;2023-04-24T08:10:56;3.08;;;1.23;;
39434;SDS011;66825;51.880;-0.518;2023-04-24T08:13:21;10.48;;;2.30;;
39434;SDS011;66825;51.880;-0.518;2023-04-24T08:15:47;12.15;;;2.22;;
39434;SDS011;66825;51.880;-0.518;2023-04-24T08:18:12;10.07;;;2.20;;
39434;SDS011;66825;51.880;-0.518;2023-04-24T08:20:38;5.38;;;1.77;;
39434;SDS011;66825;51.880;-0.518;2023-04-24T08:23:04;10.10;;;2.35;;
39434;SDS011;66825;51.880;-0.518;2023-04-24T08:25:30;4.57;;;1.83;;
39434;SDS011;66825;51.880;-0.518;2023-04-24T08:27:55;11.85;;;2.40;;
39434;SDS011;66825;51.880;-0.518;2023-04-24T08:30:21;8.70;;;2.30;;
39434;SDS011;66825;51.880;-0.518;2023-04-24T08:32:47;7.78;;;2.17;;
39434;SDS011;66825;51.880;-0.518;2023-04-24T08:35:12;9.45;;;2.33;;
39434;SDS011;66825;51.880;-0.518;2023-04-24T08:37:38;10.27;;;2.72;;
39434;SDS011;66825;51.880;-0.518;2023-04-24T08:40:05;5.78;;;2.08;;
39434;SDS011;66825;51.880;-0.518;2023-04-24T08:42:36;9.85;;;2.00;;
39434;SDS011;66825;51.880;-0.518;2023-04-24T08:45:02;6.03;;;2.10;;
39434;SDS011;66825;51.880;-0.518;2023-04-24T08:47:28;9.80;;;2.60;;
39434;SDS011;66825;51.880;-0.518;2023-04-24T08:49:55;9.00;;;2.33;;
39434;SDS011;66825;51.880;-0.518;2023-04-24T08:52:22;4.32;;;1.70;;
39434;SDS011;66825;51.880;-0.518;2023-04-24T08:54:48;5.93;;;1.77;;
39434;SDS011;66825;51.880;-0.518;2023-04-24T08:57:14;7.28;;;2.40;;
39434;SDS011;66825;51.880;-0.518;2023-04-24T08:59:40;8.57;;;2.95;;
39434;SDS011;66825;51.880;-0.518;2023-04-24T09:02:06;5.85;;;2.00;;
39434;SDS011;66825;51.880;-0.518;2023-04-24T09:04:34;5.60;;;2.05;;
39434;SDS011;66825;51.880;-0.518;2023-04-24T09:07:01;6.90;;;2.30;;
39434;SDS011;66825;51.880;-0.518;2023-04-24T09:09:29;5.05;;;1.88;;
39434;SDS011;66825;51.880;-0.518;2023-04-24T09:11:57;6.47;;;2.10;;
39434;SDS011;66825;51.880;-0.518;2023-04-24T09:14:23;6.65;;;2.00;;
39434;SDS011;66825;51.880;-0.518;2023-04-24T09:16:49;7.03;;;2.28;;
39434;SDS011;66825;51.880;-0.518;2023-04-24T09:19:16;7.95;;;1.98;;
39434;SDS011;66825;51.880;-0.518;2023-04-24T09:21:41;7.30;;;2.22;;
39434;SDS011;66825;51.880;-0.518;2023-04-24T09:24:15;4.45;;;1.80;;
39434;SDS011;66825;51.880;-0.518;2023-04-24T09:26:47;5.85;;;1.70;;
39434;SDS011;66825;51.880;-0.518;2023-04-24T09:29:17;8.30;;;2.30;;
39434;SDS011;66825;51.880;-0.518;2023-04-24T09:31:44;5.18;;;1.55;;
39434;SDS011;66825;51.880;-0.518;2023-04-24T09:34:10;4.65;;;1.65;;
39434;SDS011;66825;51.880;-0.518;2023-04-24T09:36:40;9.95;;;1.95;;
39434;SDS011;66825;51.880;-0.518;2023-04-24T09:39:09;8.05;;;2.15;;
39434;SDS011;66825;51.880;-0.518;2023-04-24T09:41:50;7.85;;;2.10;;
39434;SDS011;66825;51.880;-0.518;2023-04-24T09:44:26;7.25;;;2.10;;
39434;SDS011;66825;51.880;-0.518;2023-04-24T09:46:54;6.87;;;2.10;;
39434;SDS011;66825;51.880;-0.518;2023-04-24T09:49:24;10.50;;;2.45;;
39434;SDS011;66825;51.880;-0.518;2023-04-24T09:54:18;8.77;;;2.30;;
39434;SDS011;66825;51.880;-0.518;2023-04-24T09:56:46;7.10;;;2.08;;
39434;SDS011;66825;51.880;-0.518;2023-04-24T09:59:14;6.20;;;1.73;;
39434;SDS011;66825;51.880;-0.518;2023-04-24T10:01:40;6.25;;;2.00;;
39434;SDS011;66825;51.880;-0.518;2023-04-24T10:04:21;6.65;;;1.80;;
39434;SDS011;66825;51.880;-0.518;2023-04-24T10:06:49;6.65;;;2.05;;
39434;SDS011;66825;51.880;-0.518;2023-04-24T10:09:17;7.65;;;2.22;;
39434;SDS011;66825;51.880;-0.518;2023-04-24T10:11:44;5.25;;;1.85;;
39434;SDS011;66825;51.880;-0.518;2023-04-24T10:14:15;7.45;;;2.15;;
39434;SDS011;66825;51.880;-0.518;2023-04-24T10:16:43;6.80;;;2.10;;
39434;SDS011;66825;51.880;-0.518;2023-04-24T10:19:12;8.48;;;2.00;;
39434;SDS011;66825;51.880;-0.518;2023-04-24T10:21:38;8.35;;;2.33;;
39434;SDS011;66825;51.880;-0.518;2023-04-24T10:24:07;7.53;;;2.20;;
39434;SDS011;66825;51.880;-0.518;2023-04-24T10:26:34;6.40;;;2.10;;
39434;SDS011;66825;51.880;-0.518;2023-04-24T10:29:01;6.35;;;2.03;;
39434;SDS011;66825;51.880;-0.518;2023-04-24T10:31:27;5.75;;;1.80;;
39434;SDS011;66825;51.880;-0.518;2023-04-24T10:33:57;7.05;;;2.15;;
39434;SDS011;66825;51.880;-0.518;2023-04-24T10:36:23;6.68;;;2.00;;
39434;SDS011;66825;51.880;-0.518;2023-04-24T10:38:51;5.45;;;1.67;;
39434;SDS011;66825;51.880;-0.518;2023-04-24T10:41:19;3.83;;;1.50;;
39434;SDS011;66825;51.880;-0.518;2023-04-24T10:43:48;4.57;;;1.73;;
39434;SDS011;66825;51.880;-0.518;2023-04-24T10:48:56;12.05;;;3.67;;
39434;SDS011;66825;51.880;-0.518;2023-04-24T10:51:22;7.05;;;2.20;;
39434;SDS011;66825;51.880;-0.518;2023-04-24T10:53:49;5.38;;;2.17;;
39434;SDS011;66825;51.880;-0.518;2023-04-24T10:56:16;5.47;;;1.60;;
39434;SDS011;66825;51.880;-0.518;2023-04-24T10:58:45;6.45;;;2.30;;
39434;SDS011;66825;51.880;-0.518;2023-04-24T11:01:24;7.53;;;2.35;;
39434;SDS011;66825;51.880;-0.518;2023-04-24T11:03:55;9.80;;;2.25;;
39434;SDS011;66825;51.880;-0.518;2023-04-24T11:06:32;8.73;;;2.22;;
39434;SDS011;66825;51.880;-0.518;2023-04-24T11:09:05;13.38;;;2.75;;
39434;SDS011;66825;51.880;-0.518;2023-04-24T11:11:33;9.20;;;2.67;;
39434;SDS011;66825;51.880;-0.518;2023-04-24T11:19:06;9.35;;;2.63;;
39434;SDS011;66825;51.880;-0.518;2023-04-24T11:21:39;10.50;;;2.67;;
39434;SDS011;66825;51.880;-0.518;2023-04-24T11:24:21;7.07;;;2.47;;
39434;SDS011;66825;51.880;-0.518;2023-04-24T11:26:58;9.55;;;2.75;;
39434;SDS011;66825;51.880;-0.518;2023-04-24T11:29:49;10.05;;;2.60;;
39434;SDS011;66825;51.880;-0.518;2023-04-24T11:32:28;7.85;;;2.70;;
39434;SDS011;66825;51.880;-0.518;2023-04-24T11:37:27;8.90;;;2.83;;
39434;SDS011;66825;51.880;-0.518;2023-04-24T11:40:00;5.82;;;2.10;;
39434;SDS011;66825;51.880;-0.518;2023-04-24T11:42:26;8.73;;;2.22;;
39434;SDS011;66825;51.880;-0.518;2023-04-24T11:44:52;8.05;;;2.45;;
39434;SDS011;66825;51.880;-0.518;2023-04-24T11:47:18;5.72;;;1.90;;
39434;SDS011;66825;51.880;-0.518;2023-04-24T11:49:44;5.63;;;2.03;;
39434;SDS011;66825;51.880;-0.518;2023-04-24T11:52:09;6.38;;;1.90;;
39434;SDS011;66825;51.880;-0.518;2023-04-24T11:54:36;5.72;;;2.10;;
39434;SDS011;66825;51.880;-0.518;2023-04-24T11:57:05;5.57;;;1.80;;
39434;SDS011;66825;51.880;-0.518;2023-04-24T11:59:37;5.25;;;1.80;;
39434;SDS011;66825;51.880;-0.518;2023-04-24T12:02:03;8.23;;;2.30;;
39434;SDS011;66825;51.880;-0.518;2023-04-24T12:04:37;6.28;;;2.30;;
39434;SDS011;66825;51.880;-0.518;2023-04-24T12:07:06;7.45;;;1.95;;
39434;SDS011;66825;51.880;-0.518;2023-04-24T12:12:30;9.52;;;2.30;;
39434;SDS011;66825;51.880;-0.518;2023-04-24T12:14:56;7.90;;;1.95;;
39434;SDS011;66825;51.880;-0.518;2023-04-24T12:17:29;7.20;;;1.92;;
39434;SDS011;66825;51.880;-0.518;2023-04-24T12:22:26;5.95;;;1.70;;
39434;SDS011;66825;51.880;-0.518;2023-04-24T12:24:55;10.70;;;1.95;;
39434;SDS011;66825;51.880;-0.518;2023-04-24T12:27:26;4.72;;;1.50;;
39434;SDS011;66825;51.880;-0.518;2023-04-24T12:29:53;8.95;;;2.40;;
39434;SDS011;66825;51.880;-0.518;2023-04-24T12:32:22;6.97;;;1.90;;
39434;SDS011;66825;51.880;-0.518;2023-04-24T12:34:50;5.43;;;2.00;;
39434;SDS011;66825;51.880;-0.518;2023-04-24T12:37:16;5.88;;;1.67;;
39434;SDS011;66825;51.880;-0.518;2023-04-24T12:42:46;6.80;;;2.13;;
39434;SDS011;66825;51.880;-0.518;2023-04-24T12:45:12;7.65;;;1.80;;
39434;SDS011;66825;51.880;-0.518;2023-04-24T12:47:38;4.88;;;1.88;;
39434;SDS011;66825;51.880;-0.518;2023-04-24T12:50:05;7.80;;;2.05;;
39434;SDS011;66825;51.880;-0.518;2023-04-24T12:52:32;6.93;;;1.80;;
39434;SDS011;66825;51.880;-0.518;2023-04-24T12:54:58;7.43;;;1.98;;
39434;SDS011;66825;51.880;-0.518;2023-04-24T12:57:25;8.52;;;2.10;;
39434;SDS011;66825;51.880;-0.518;2023-04-24T12:59:54;10.70;;;2.35;;
39434;SDS011;66825;51.880;-0.518;2023-04-24T13:02:24;7.20;;;2.33;;
39434;SDS011;66825;51.880;-0.518;2023-04-24T13:04:52;8.02;;;1.98;;
39434;SDS011;66825;51.880;-0.518;2023-04-24T13:07:17;6.15;;;1.90;;
39434;SDS011;66825;51.880;-0.518;2023-04-24T13:09:43;6.93;;;1.98;;
39434;SDS011;66825;51.880;-0.518;2023-04-24T13:12:10;5.68;;;1.92;;
39434;SDS011;66825;51.880;-0.518;2023-04-24T13:14:36;9.13;;;1.80;;
39434;SDS011;66825;51.880;-0.518;2023-04-24T13:17:02;11.07;;;2.53;;
39434;SDS011;66825;51.880;-0.518;2023-04-24T13:19:28;5.55;;;1.60;;
39434;SDS011;66825;51.880;-0.518;2023-04-24T13:21:54;6.30;;;1.70;;
39434;SDS011;66825;51.880;-0.518;2023-04-24T13:24:24;8.18;;;2.05;;
39434;SDS011;66825;51.880;-0.518;2023-04-24T13:26:50;3.83;;;1.52;;
39434;SDS011;66825;51.880;-0.518;2023-04-24T13:29:16;9.25;;;2.08;;
39434;SDS011;66825;51.880;-0.518;2023-04-24T13:31:41;8.25;;;2.20;;
39434;SDS011;66825;51.880;-0.518;2023-04-24T13:34:07;6.55;;;1.90;;
39434;SDS011;66825;51.880;-0.518;2023-04-24T13:36:33;6.60;;;1.70;;
39434;SDS011;66825;51.880;-0.518;2023-04-24T13:38:58;5.63;;;1.98;;
39434;SDS011;66825;51.880;-0.518;2023-04-24T13:41:24;5.63;;;1.77;;
39434;SDS011;66825;51.880;-0.518;2023-04-24T13:43:49;6.10;;;1.90;;
39434;SDS011;66825;51.880;-0.518;2023-04-24T13:46:15;4.72;;;1.70;;
39434;SDS011;66825;51.880;-0.518;2023-04-24T13:48:41;5.43;;;1.90;;
39434;SDS011;66825;51.880;-0.518;2023-04-24T13:51:06;7.10;;;1.88;;
39434;SDS011;66825;51.880;-0.518;2023-04-24T13:53:31;9.07;;;2.80;;
39434;SDS011;66825;51.880;-0.518;2023-04-24T13:55:57;5.32;;;1.90;;
39434;SDS011;66825;51.880;-0.518;2023-04-24T13:58:23;12.52;;;3.35;;
39434;SDS011;66825;51.880;-0.518;2023-04-24T14:00:48;8.23;;;2.35;;
39434;SDS011;66825;51.880;-0.518;2023-04-24T14:03:14;8.18;;;2.10;;
39434;SDS011;66825;51.880;-0.518;2023-04-24T14:05:40;7.43;;;2.08;;
39434;SDS011;66825;51.880;-0.518;2023-04-24T14:08:05;6.60;;;1.80;;
39434;SDS011;66825;51.880;-0.518;2023-04-24T14:10:31;5.55;;;1.60;;
39434;SDS011;66825;51.880;-0.518;2023-04-24T14:12:56;5.03;;;1.50;;
39434;SDS011;66825;51.880;-0.518;2023-04-24T14:15:22;5.18;;;1.52;;
39434;SDS011;66825;51.880;-0.518;2023-04-24T14:17:48;7.18;;;2.15;;
39434;SDS011;66825;51.880;-0.518;2023-04-24T14:20:14;4.22;;;1.83;;
39434;SDS011;66825;51.880;-0.518;2023-04-24T14:22:40;8.02;;;1.95;;
39434;SDS011;66825;51.880;-0.518;2023-04-24T14:25:06;10.98;;;3.35;;
39434;SDS011;66825;51.880;-0.518;2023-04-24T14:27:31;11.60;;;3.20;;
39434;SDS011;66825;51.880;-0.518;2023-04-24T14:29:57;10.02;;;2.50;;
39434;SDS011;66825;51.880;-0.518;2023-04-24T14:32:22;11.32;;;3.10;;
39434;SDS011;66825;51.880;-0.518;2023-04-24T14:34:48;12.35;;;2.58;;
39434;SDS011;66825;51.880;-0.518;2023-04-24T14:37:14;9.00;;;2.65;;
39434;SDS011;66825;51.880;-0.518;2023-04-24T14:39:40;8.45;;;2.40;;
39434;SDS011;66825;51.880;-0.518;2023-04-24T14:42:05;11.98;;;2.63;;
39434;SDS011;66825;51.880;-0.518;2023-04-24T14:44:31;10.25;;;2.78;;
39434;SDS011;66825;51.880;-0.518;2023-04-24T14:46:56;8.32;;;2.10;;
39434;SDS011;66825;51.880;-0.518;2023-04-24T14:49:23;7.65;;;1.95;;
39434;SDS011;66825;51.880;-0.518;2023-04-24T14:51:48;9.85;;;2.33;;